Vienna, South Dakota
Current Conditions -  °F | °C
As of 3:53 AM on Friday 21 Nov 2014 (Local Time) from KATY Reporting Station
Clear Clear  
Wind Chill: -6°   Ceiling: Unl
Heat Index: 11°   Visibility: 10mi
Dew Point:   Wind: 16mph
Humidity: 84%   Direction: 160°SSE
Pressure: 30"   Gusts: NA
Location:  44.7°N, 97.5°W
Report Text: KATY 210953Z AUTO 16014KT 10SM CLR M12/M14 A3000 RMK AO2 SLP194 T11171139
Loading
Personal Weather Stations






























Interactive Weather Map New forecast layout! Learn more

10-Day Weather Forecast

Advertisements
Track Severe Weather on mobile